Íslenskir flugvellir

Veldu flugvelli í þeirri röð sem þeir eiga að birtast og styddu á hnappinn

Uppfært síðast 23.10.2019 - kl. 11:49

SIGMET síðustu 6 klst.

Engin SIGMET skeyti bárust síðustu 6 klst.

Vestmannaeyjar

METAR síðustu 3 klst

TímiSkeyti
2019-10-23 11.00METAR BIVM 231100Z 03018KT CAVOK M01/M11 Q1011 RMK MISTUR (MOLDROK FRA LANDI)
2019-10-23 10.00METAR BIVM 231000Z 01018KT 9000 HZ BKN060 M01/M10 Q1011
2019-10-23 09.00METAR BIVM 230900Z 02010KT 9000 HZ BKN050 M01/M08 Q1011

TAF

TAFBIVM2019-10-23 10.16Z23112001025KT 9999 FEW040

Allur vindur er réttvísandi bæði í Metar og frá sjálfvirkum veðurstöðvum




Aðrir tengdir vefir



Þetta vefsvæði byggir á Eplica